Time;durP1;ratioP1;P1;durP2;ratioP2;P2;SDS_P1;SDS_P2;PMS_P1;PMS_P2;Temp;Humidity;BMP_temperature;BMP_pressure;BME280_temperature;BME280_humidity;BME280_pressure;Samples;Min_cycle;Max_cycle;Signal;HPM_P1;HPM_P2
2023/04/21 00:00:23;;;;;;;;;;;;;;;3.94;100.00;96090.69;5039197;28;19944;-80
2023/04/21 00:02:49;;;;;;;;;;;;;;;3.92;100.00;96084.88;5056716;28;20413;-80
2023/04/21 00:05:14;;;;;;;;;;;;;;;3.89;100.00;96090.47;5054953;28;20456;-81
2023/04/21 00:07:40;;;;;;;;;;;;;;;3.86;100.00;96090.81;5056801;28;20458;-72
2023/04/21 00:10:07;;;;;;;;;;;;;;;3.83;100.00;96099.78;5056617;28;20390;-74
2023/04/21 00:12:33;;;;;;;;;;;;;;;3.80;100.00;96089.78;5055617;28;20316;-70
2023/04/21 00:14:59;;;;;;;;;;;;;;;3.77;100.00;96087.53;5055777;28;19946;-70
2023/04/21 00:17:25;;;;;;;;;;;;;;;3.75;100.00;96083.53;5055554;28;20388;-70
2023/04/21 00:19:51;;;;;;;;;;;;;;;3.73;100.00;96085.50;5054613;28;20027;-70
2023/04/21 00:22:17;;;;;;;;;;;;;;;3.70;100.00;96075.50;5056379;28;19962;-70
2023/04/21 00:24:44;;;;;;;;;;;;;;;3.68;100.00;96073.09;5055085;28;19942;-70
2023/04/21 00:27:10;;;;;;;;;;;;;;;3.66;100.00;96064.69;5054544;28;19954;-78
2023/04/21 00:29:37;;;;;;;;;;;;;;;3.63;100.00;96065.88;5054470;28;19952;-75
2023/04/21 00:32:07;;;;;;;;;;;;;;;3.61;100.00;96060.06;5055588;28;20302;-74
2023/04/21 00:34:33;;;;;;;;;;;;;;;3.60;100.00;96057.63;5056100;28;19968;-74
2023/04/21 00:36:59;;;;;;;;;;;;;;;3.58;100.00;96052.63;5055479;28;20478;-74
2023/04/21 00:39:25;;;;;;;;;;;;;;;3.57;100.00;96058.00;5055987;28;19942;-74
2023/04/21 00:41:50;;;;;;;;;;;;;;;3.55;100.00;96057.38;5055434;28;19942;-74
2023/04/21 00:44:16;;;;;;;;;;;;;;;3.54;100.00;96064.34;5055972;28;19943;-74
2023/04/21 00:46:42;;;;;;;;;;;;;;;3.54;100.00;96060.97;5055272;28;19960;-70
2023/04/21 00:49:08;;;;;;;;;;;;;;;3.51;100.00;96064.72;5054172;28;19943;-73
2023/04/21 00:51:35;;;;;;;;;;;;;;;3.48;100.00;96066.88;5038258;28;19944;-73
2023/04/21 00:54:05;;;;;;;;;;;;;;;3.44;100.00;96062.06;5054709;28;20375;-73
2023/04/21 00:56:32;;;;;;;;;;;;;;;3.42;100.00;96058.84;5054793;28;19939;-72
2023/04/21 00:58:58;;;;;;;;;;;;;;;3.39;100.00;96054.03;5037342;28;19949;-73
2023/04/21 01:01:24;;;;;;;;;;;;;;;3.37;100.00;96058.59;5036073;28;20308;-72
2023/04/21 01:03:51;;;;;;;;;;;;;;;3.35;100.00;96051.97;5053872;28;19945;-74
2023/04/21 01:06:17;;;;;;;;;;;;;;;3.33;100.00;96059.13;5054602;28;20314;-71
2023/04/21 01:08:47;;;;;;;;;;;;;;;3.31;100.00;96055.91;5037121;28;19951;-70
2023/04/21 01:11:13;;;;;;;;;;;;;;;3.29;100.00;96052.69;5053651;28;19945;-70
2023/04/21 01:13:39;;;;;;;;;;;;;;;3.25;100.00;96055.66;5054436;28;20398;-70
2023/04/21 01:16:06;;;;;;;;;;;;;;;3.22;100.00;96056.00;5053696;28;19976;-70
2023/04/21 01:18:33;;;;;;;;;;;;;;;3.21;100.00;96051.84;5053507;28;19947;-70
2023/04/21 01:21:00;;;;;;;;;;;;;;;3.17;100.00;96055.78;5053987;28;19956;-70
2023/04/21 01:23:25;;;;;;;;;;;;;;;3.14;100.00;96053.53;5055201;28;19952;-70
2023/04/21 01:25:51;;;;;;;;;;;;;;;3.12;100.00;96057.28;5036676;28;19943;-72
2023/04/21 01:28:21;;;;;;;;;;;;;;;3.09;100.00;96061.03;5053923;28;19938;-72
2023/04/21 01:30:47;;;;;;;;;;;;;;;3.06;100.00;96061.38;5053902;28;19941;-71
2023/04/21 01:33:13;;;;;;;;;;;;;;;3.04;100.00;96061.59;5037453;28;19943;-72
2023/04/21 01:35:39;;;;;;;;;;;;;;;3.00;100.00;96057.75;5053844;28;19953;-71
2023/04/21 01:38:05;;;;;;;;;;;;;;;2.97;100.00;96059.88;5053211;28;19949;-72
2023/04/21 01:40:31;;;;;;;;;;;;;;;2.96;100.00;96058.25;5037367;28;20336;-72
2023/04/21 01:42:57;;;;;;;;;;;;;;;2.91;100.00;96064.00;5053783;28;20421;-71
2023/04/21 01:45:23;;;;;;;;;;;;;;;2.90;100.00;96066.75;5036471;28;20002;-72
2023/04/21 01:47:49;;;;;;;;;;;;;;;2.88;100.00;96066.13;5054095;28;19966;-72
2023/04/21 01:50:15;;;;;;;;;;;;;;;2.85;100.00;96067.28;5054170;28;19942;-72
2023/04/21 01:52:40;;;;;;;;;;;;;;;2.82;100.00;96065.06;5054618;28;19933;-72
2023/04/21 01:55:06;;;;;;;;;;;;;;;2.79;100.00;96066.25;5054570;28;20327;-72
2023/04/21 01:57:32;;;;;;;;;;;;;;;2.80;100.00;96061.84;5052856;28;19948;-72
2023/04/21 01:59:58;;;;;;;;;;;;;;;2.78;100.00;96056.84;5053957;28;20118;-72
2023/04/21 02:02:24;;;;;;;;;;;;;;;2.77;100.00;96070.78;5052680;28;19947;-72
2023/04/21 02:04:50;;;;;;;;;;;;;;;2.75;100.00;96070.16;5036862;28;19946;-72
2023/04/21 02:07:16;;;;;;;;;;;;;;;2.77;100.00;96067.38;5053856;28;19964;-73
2023/04/21 02:09:42;;;;;;;;;;;;;;;2.77;100.00;96073.38;5053823;28;19938;-72
2023/04/21 02:12:07;;;;;;;;;;;;;;;2.79;100.00;96074.00;5054260;28;19938;-72
2023/04/21 02:14:33;;;;;;;;;;;;;;;2.82;100.00;96083.19;5052530;28;20393;-72
2023/04/21 02:17:02;;;;;;;;;;;;;;;2.83;100.00;96089.97;5052442;28;20469;-74
2023/04/21 02:19:28;;;;;;;;;;;;;;;2.84;100.00;96082.03;5069233;28;19949;-72
2023/04/21 02:21:54;;;;;;;;;;;;;;;2.87;100.00;96080.88;5053210;28;19943;-74
2023/04/21 02:24:20;;;;;;;;;;;;;;;2.89;100.00;96086.66;5052446;28;19941;-74
2023/04/21 02:26:46;;;;;;;;;;;;;;;2.91;100.00;96079.53;5053772;28;19961;-74
2023/04/21 02:29:12;;;;;;;;;;;;;;;2.93;100.00;96087.13;5054070;28;19980;-73
2023/04/21 02:31:38;;;;;;;;;;;;;;;2.94;100.00;96079.19;5053565;28;20002;-73
2023/04/21 02:34:04;;;;;;;;;;;;;;;2.96;100.00;96066.03;5053793;28;20005;-74
2023/04/21 02:36:30;;;;;;;;;;;;;;;2.98;100.00;96067.50;5054007;28;20068;-75
2023/04/21 02:38:56;;;;;;;;;;;;;;;2.98;100.00;96064.91;5054063;28;19942;-74
2023/04/21 02:41:23;;;;;;;;;;;;;;;3.01;100.00;96067.13;5052273;28;19942;-73
2023/04/21 02:43:49;;;;;;;;;;;;;;;3.02;100.00;96066.16;5053469;28;19940;-73
2023/04/21 02:46:14;;;;;;;;;;;;;;;3.04;100.00;96078.91;5052976;28;20030;-72
2023/04/21 02:48:40;;;;;;;;;;;;;;;3.04;100.00;96066.78;5053066;28;19941;-73
2023/04/21 02:51:13;;;;;;;;;;;;;;;3.04;100.00;96071.94;5052828;28;19943;-72
2023/04/21 02:53:39;;;;;;;;;;;;;;;3.07;100.00;96077.72;5052774;28;19946;-75
2023/04/21 02:56:07;;;;;;;;;;;;;;;3.06;100.00;96074.34;5053435;28;19946;-70
2023/04/21 02:58:36;;;;;;;;;;;;;;;3.07;100.00;96069.97;5052194;28;19946;-72
2023/04/21 03:01:03;;;;;;;;;;;;;;;3.07;100.00;96062.19;5053543;28;20408;-73
2023/04/21 03:03:29;;;;;;;;;;;;;;;3.07;100.00;96059.59;5053604;28;19970;-72
2023/04/21 03:05:59;;;;;;;;;;;;;;;3.06;100.00;96040.66;5053566;28;20327;-72
2023/04/21 03:08:25;;;;;;;;;;;;;;;3.06;100.00;96038.06;5053732;28;19949;-72
2023/04/21 03:10:51;;;;;;;;;;;;;;;3.03;100.00;96049.59;5053113;28;20003;-72
2023/04/21 03:13:17;;;;;;;;;;;;;;;3.00;100.00;96051.75;5053251;28;20502;-73
2023/04/21 03:15:43;;;;;;;;;;;;;;;2.98;100.00;96053.72;5053352;28;20135;-69
2023/04/21 03:18:10;;;;;;;;;;;;;;;2.97;100.00;96054.72;5035284;28;20322;-69
2023/04/21 03:20:35;;;;;;;;;;;;;;;2.96;100.00;96048.72;5035759;28;19942;-69
2023/04/21 03:23:01;;;;;;;;;;;;;;;2.94;100.00;96044.69;5053582;28;19942;-70
2023/04/21 03:25:28;;;;;;;;;;;;;;;2.93;100.00;96043.91;5055613;28;19937;-69
2023/04/21 03:27:54;;;;;;;;;;;;;;;2.89;100.00;96037.47;5057266;28;20431;-70
2023/04/21 03:30:21;;;;;;;;;;;;;;;2.88;100.00;96037.63;5039744;28;20377;-77
2023/04/21 03:32:47;;;;;;;;;;;;;;;2.85;100.00;96039.59;5056821;28;19945;-74
2023/04/21 03:35:12;;;;;;;;;;;;;;;2.82;100.00;96037.38;5056753;28;20020;-72
2023/04/21 03:37:38;;;;;;;;;;;;;;;2.82;100.00;96042.56;5039567;28;20016;-71
2023/04/21 03:40:05;;;;;;;;;;;;;;;2.82;100.00;96041.75;5056207;28;20463;-72
2023/04/21 03:42:30;;;;;;;;;;;;;;;2.80;100.00;96047.13;5038678;28;19944;-72
2023/04/21 03:45:00;;;;;;;;;;;;;;;2.78;100.00;96043.91;5056134;28;20349;-73
2023/04/21 03:47:26;;;;;;;;;;;;;;;2.77;100.00;96054.44;5056421;28;19955;-72
2023/04/21 03:49:52;;;;;;;;;;;;;;;2.76;100.00;96050.25;5039391;28;19945;-72
2023/04/21 03:52:17;;;;;;;;;;;;;;;2.74;100.00;96050.41;5055213;28;19940;-77
2023/04/21 03:54:43;;;;;;;;;;;;;;;2.74;100.00;96047.03;5039151;28;19945;-76
2023/04/21 03:57:09;;;;;;;;;;;;;;;2.72;100.00;96047.19;5039149;28;19952;-75
2023/04/21 03:59:35;;;;;;;;;;;;;;;2.70;100.00;96045.78;5055683;28;19953;-75
2023/04/21 04:02:01;;;;;;;;;;;;;;;2.70;100.00;96050.97;5054992;28;19943;-75
2023/04/21 04:04:26;;;;;;;;;;;;;;;2.68;100.00;96045.16;5056623;28;19939;-76
2023/04/21 04:06:52;;;;;;;;;;;;;;;2.68;100.00;96045.94;5055970;28;20302;-73
2023/04/21 04:09:18;;;;;;;;;;;;;;;2.68;100.00;96045.16;5054945;28;19941;-74
2023/04/21 04:11:44;;;;;;;;;;;;;;;2.68;100.00;96048.53;5054771;28;20038;-73
2023/04/21 04:14:10;;;;;;;;;;;;;;;2.67;100.00;96049.53;5055264;28;19954;-72
2023/04/21 04:16:36;;;;;;;;;;;;;;;2.67;100.00;96051.28;5054706;28;19972;-73
2023/04/21 04:19:02;;;;;;;;;;;;;;;2.69;100.00;96051.91;5055480;28;19944;-72
2023/04/21 04:21:28;;;;;;;;;;;;;;;2.68;100.00;96050.31;5055864;28;19940;-72
2023/04/21 04:23:54;;;;;;;;;;;;;;;2.63;100.00;96056.84;5038773;28;20318;-72
2023/04/21 04:26:23;;;;;;;;;;;;;;;2.58;100.00;96050.56;5037895;28;19954;-70
2023/04/21 04:28:49;;;;;;;;;;;;;;;2.55;100.00;96056.91;5055488;28;19957;-72
2023/04/21 04:31:16;;;;;;;;;;;;;;;2.55;100.00;96053.53;5055956;28;19960;-73
2023/04/21 04:33:42;;;;;;;;;;;;;;;2.56;100.00;96057.72;5056089;28;19938;-73
2023/04/21 04:36:08;;;;;;;;;;;;;;;2.58;100.00;96061.75;5055783;28;19965;-72
2023/04/21 04:38:36;;;;;;;;;;;;;;;2.61;100.00;96058.81;5056355;28;20288;-73
2023/04/21 04:41:02;;;;;;;;;;;;;;;2.63;100.00;96064.59;5055436;28;19940;-73
2023/04/21 04:43:28;;;;;;;;;;;;;;;2.61;100.00;96063.19;5055414;28;19940;-73
2023/04/21 04:45:54;;;;;;;;;;;;;;;2.59;100.00;96054.78;5055395;28;19935;-72
2023/04/21 04:48:20;;;;;;;;;;;;;;;2.57;100.00;96061.94;5054006;28;20439;-70
2023/04/21 04:50:46;;;;;;;;;;;;;;;2.55;100.00;96054.34;5055525;28;19943;-70
2023/04/21 04:53:11;;;;;;;;;;;;;;;2.57;100.00;96060.13;5054090;28;19945;-70
2023/04/21 04:55:37;;;;;;;;;;;;;;;2.56;100.00;96062.91;5054046;28;19939;-70
2023/04/21 04:58:03;;;;;;;;;;;;;;;2.56;100.00;96062.91;5054824;28;19938;-70
2023/04/21 05:00:30;;;;;;;;;;;;;;;2.56;100.00;96063.72;5053970;28;20008;-70
2023/04/21 05:02:56;;;;;;;;;;;;;;;2.56;100.00;96066.31;5055663;28;19944;-72
2023/04/21 05:05:23;;;;;;;;;;;;;;;2.59;100.00;96075.50;5055887;28;19943;-72
2023/04/21 05:07:49;;;;;;;;;;;;;;;2.62;100.00;96075.13;5037819;28;19958;-70
2023/04/21 05:10:15;;;;;;;;;;;;;;;2.62;100.00;96075.97;5037905;28;19943;-70
2023/04/21 05:12:41;;;;;;;;;;;;;;;2.63;100.00;96079.34;5053636;28;19941;-70
2023/04/21 05:15:07;;;;;;;;;;;;;;;2.54;100.00;96073.44;5055072;28;20051;-70
2023/04/21 05:17:33;;;;;;;;;;;;;;;2.44;100.00;96075.47;5054858;28;19943;-70
2023/04/21 05:19:59;;;;;;;;;;;;;;;2.45;100.00;96079.66;5053490;28;19944;-71
2023/04/21 05:22:25;;;;;;;;;;;;;;;2.52;100.00;96082.34;5055246;28;20427;-76
2023/04/21 05:24:51;;;;;;;;;;;;;;;2.56;100.00;96081.00;5036866;28;19952;-73
2023/04/21 05:27:17;;;;;;;;;;;;;;;2.55;100.00;96080.22;5037548;28;19960;-71
2023/04/21 05:29:43;;;;;;;;;;;;;;;2.57;100.00;96082.63;5054239;28;19991;-73
2023/04/21 05:32:11;;;;;;;;;;;;;;;2.62;100.00;96090.66;5054570;28;19946;-72
2023/04/21 05:34:37;;;;;;;;;;;;;;;2.69;100.00;96098.53;5055023;28;19941;-72
2023/04/21 05:37:03;;;;;;;;;;;;;;;2.74;100.00;96099.59;5054308;28;19952;-73
2023/04/21 05:39:29;;;;;;;;;;;;;;;2.75;100.00;96100.41;5053984;28;20046;-72
2023/04/21 05:41:55;;;;;;;;;;;;;;;2.70;100.00;96100.16;5053135;28;20419;-73
2023/04/21 05:44:20;;;;;;;;;;;;;;;2.66;100.00;96110.03;5054867;28;19945;-70
2023/04/21 05:46:46;;;;;;;;;;;;;;;2.67;100.00;96109.06;5052337;28;20026;-70
2023/04/21 05:49:12;;;;;;;;;;;;;;;2.70;100.00;96107.91;5053642;28;19953;-70
2023/04/21 05:51:38;;;;;;;;;;;;;;;2.69;100.00;96107.13;5055004;28;20293;-69
2023/04/21 05:54:04;;;;;;;;;;;;;;;2.69;100.00;96101.94;5054962;28;20383;-70
2023/04/21 05:56:29;;;;;;;;;;;;;;;2.70;100.00;96097.56;5052950;28;19967;-70
2023/04/21 05:58:55;;;;;;;;;;;;;;;2.71;100.00;96087.03;5054830;28;20304;-75
2023/04/21 06:01:21;;;;;;;;;;;;;;;2.70;100.00;96094.97;5052817;28;19943;-71
2023/04/21 06:03:50;;;;;;;;;;;;;;;2.72;100.00;96087.81;5036172;28;19954;-70
2023/04/21 06:06:16;;;;;;;;;;;;;;;2.73;100.00;96086.84;5054800;28;19946;-70
2023/04/21 06:08:42;;;;;;;;;;;;;;;2.76;100.00;96082.13;5053168;28;19962;-71
2023/04/21 06:11:08;;;;;;;;;;;;;;;2.80;100.00;96085.97;5052663;28;19945;-70
2023/04/21 06:13:33;;;;;;;;;;;;;;;2.85;100.00;96082.84;5052668;28;19947;-70
2023/04/21 06:15:59;;;;;;;;;;;;;;;2.89;100.00;96084.09;5052756;28;20472;-72
2023/04/21 06:18:26;;;;;;;;;;;;;;;2.90;100.00;96088.28;5069329;28;19962;-75
2023/04/21 06:20:52;;;;;;;;;;;;;;;2.91;100.00;96086.50;5052410;28;19949;-73
2023/04/21 06:23:18;;;;;;;;;;;;;;;2.92;100.00;96088.09;5053668;28;19950;-73
2023/04/21 06:25:44;;;;;;;;;;;;;;;2.93;100.00;96095.69;5052453;28;20327;-73
2023/04/21 06:28:10;;;;;;;;;;;;;;;2.93;100.00;96093.09;5053013;28;20007;-72
2023/04/21 06:30:36;;;;;;;;;;;;;;;2.96;100.00;96092.75;5052396;28;19949;-72
2023/04/21 06:33:03;;;;;;;;;;;;;;;3.01;100.00;96092.22;5053175;28;19944;-73
2023/04/21 06:35:29;;;;;;;;;;;;;;;3.12;100.00;96078.00;5035853;28;19938;-77
2023/04/21 06:37:55;;;;;;;;;;;;;;;3.46;100.00;96061.88;5036433;28;19958;-73
2023/04/21 06:40:21;;;;;;;;;;;;;;;4.03;100.00;96063.66;5053586;28;20337;-72
2023/04/21 06:42:47;;;;;;;;;;;;;;;4.85;100.00;96064.03;5053498;28;20298;-73
2023/04/21 06:45:13;;;;;;;;;;;;;;;5.68;100.00;96046.59;5053518;28;19950;-72
2023/04/21 06:47:38;;;;;;;;;;;;;;;6.42;100.00;96060.50;5053972;28;19959;-72
2023/04/21 06:50:05;;;;;;;;;;;;;;;7.02;100.00;96044.81;5052071;28;20035;-73
2023/04/21 06:52:30;;;;;;;;;;;;;;;7.62;100.00;96041.97;5053720;28;19967;-73
2023/04/21 06:54:56;;;;;;;;;;;;;;;8.17;98.72;96020.53;5053430;28;19941;-77
2023/04/21 06:57:22;;;;;;;;;;;;;;;8.66;95.71;96016.31;5035595;28;19973;-78
2023/04/21 06:59:48;;;;;;;;;;;;;;;9.12;93.74;95996.72;5056935;28;19970;-79
2023/04/21 07:02:14;;;;;;;;;;;;;;;9.46;91.70;95991.84;5057454;28;19938;-79
2023/04/21 07:04:40;;;;;;;;;;;;;;;9.51;88.06;95978.91;5057323;28;19946;-79
2023/04/21 07:07:06;;;;;;;;;;;;;;;9.43;88.50;95989.69;5056794;28;20409;-79
2023/04/21 07:09:32;;;;;;;;;;;;;;;9.16;86.48;95983.22;5057308;28;19947;-80
2023/04/21 07:11:58;;;;;;;;;;;;;;;9.12;89.10;96001.94;5057981;28;19946;-74
2023/04/21 07:14:25;;;;;;;;;;;;;;;9.32;86.70;95987.81;5058001;28;19938;-75
2023/04/21 07:16:50;;;;;;;;;;;;;;;9.37;86.03;95987.16;5055650;28;19971;-75
2023/04/21 07:19:16;;;;;;;;;;;;;;;9.41;85.99;95989.13;5057276;28;19939;-75
2023/04/21 07:21:42;;;;;;;;;;;;;;;9.37;87.54;95995.03;5057571;28;19983;-76
2023/04/21 07:24:08;;;;;;;;;;;;;;;9.27;85.18;95972.78;5056976;28;20391;-76
2023/04/21 07:26:34;;;;;;;;;;;;;;;8.99;86.31;95983.78;5056895;28;19993;-75
2023/04/21 07:29:00;;;;;;;;;;;;;;;8.81;87.04;96000.28;5056764;28;20044;-75
2023/04/21 07:31:26;;;;;;;;;;;;;;;8.76;87.87;96004.53;5056439;28;19947;-79
2023/04/21 07:33:51;;;;;;;;;;;;;;;8.60;86.96;95996.25;5039725;28;19955;-81
2023/04/21 07:36:17;;;;;;;;;;;;;;;8.45;89.18;96016.72;5056702;28;19985;-80
2023/04/21 07:38:43;;;;;;;;;;;;;;;8.30;90.24;96022.22;5038881;28;19943;-81
2023/04/21 07:41:10;;;;;;;;;;;;;;;8.12;89.52;96020.34;5057228;28;19982;-81
2023/04/21 07:43:37;;;;;;;;;;;;;;;7.90;92.83;96043.41;5056668;28;19941;-80
2023/04/21 07:46:03;;;;;;;;;;;;;;;7.86;92.62;96037.00;5055386;28;19943;-81
2023/04/21 07:48:29;;;;;;;;;;;;;;;7.74;94.26;96042.09;5039516;28;19963;-79
2023/04/21 07:50:57;;;;;;;;;;;;;;;7.78;93.84;96035.44;5055323;28;19942;-70
2023/04/21 07:53:23;;;;;;;;;;;;;;;7.85;94.40;96040.63;5039407;28;19942;-75
2023/04/21 07:55:49;;;;;;;;;;;;;;;7.96;95.33;96039.97;5056012;28;19948;-75
2023/04/21 07:58:15;;;;;;;;;;;;;;;8.41;92.13;96015.53;5038449;28;19951;-75
2023/04/21 08:00:41;;;;;;;;;;;;;;;8.77;92.25;96020.03;5039172;28;19937;-74
2023/04/21 08:03:07;;;;;;;;;;;;;;;8.83;90.21;96000.84;5055927;28;19936;-75
2023/04/21 08:05:33;;;;;;;;;;;;;;;8.99;91.00;95996.88;5055016;28;19948;-75
2023/04/21 08:07:59;;;;;;;;;;;;;;;9.12;89.34;95993.31;5055707;28;19981;-78
2023/04/21 08:10:25;;;;;;;;;;;;;;;9.38;91.99;96002.63;5054346;28;19947;-72
2023/04/21 08:12:51;;;;;;;;;;;;;;;9.73;88.75;95981.81;5054801;28;19944;-73
2023/04/21 08:15:17;;;;;;;;;;;;;;;10.06;84.14;95948.31;5055356;28;20033;-73
2023/04/21 08:17:43;;;;;;;;;;;;;;;10.21;86.19;95958.34;5055695;28;19948;-74
2023/04/21 08:20:09;;;;;;;;;;;;;;;10.19;84.85;95950.69;5055600;28;20035;-73
2023/04/21 08:22:38;;;;;;;;;;;;;;;10.33;84.84;95948.66;5038090;28;19949;-73
2023/04/21 08:25:04;;;;;;;;;;;;;;;10.52;85.63;95951.97;5054590;28;19936;-71
2023/04/21 08:27:30;;;;;;;;;;;;;;;10.61;84.44;95940.13;5054669;28;19948;-78
2023/04/21 08:29:56;;;;;;;;;;;;;;;10.62;83.60;95938.28;5037925;28;19949;-73
2023/04/21 08:32:23;;;;;;;;;;;;;;;10.84;83.31;95936.66;5038756;28;20409;-71
2023/04/21 08:34:50;;;;;;;;;;;;;;;10.93;83.13;95934.47;5055657;28;19944;-72
2023/04/21 08:37:17;;;;;;;;;;;;;;;10.91;83.14;95934.69;5055549;28;19961;-72
2023/04/21 08:39:44;;;;;;;;;;;;;;;11.05;82.51;95923.94;5055657;28;19942;-73
2023/04/21 08:42:11;;;;;;;;;;;;;;;11.33;83.46;95934.44;5054347;28;19944;-71
2023/04/21 08:44:37;;;;;;;;;;;;;;;11.45;78.61;95904.72;5055600;28;19943;-71
2023/04/21 08:47:05;;;;;;;;;;;;;;;11.49;82.04;95926.84;5055488;28;19940;-72
2023/04/21 08:49:32;;;;;;;;;;;;;;;11.46;80.87;95927.31;5054150;28;20009;-72
2023/04/21 08:51:59;;;;;;;;;;;;;;;11.49;82.90;95940.75;5055324;28;19946;-72
2023/04/21 08:54:25;;;;;;;;;;;;;;;11.51;80.04;95922.94;5055251;28;19942;-71
2023/04/21 08:56:51;;;;;;;;;;;;;;;11.33;79.69;95923.13;5055462;28;19943;-72
2023/04/21 08:59:17;;;;;;;;;;;;;;;11.33;82.65;95944.94;5054121;28;19945;-71
2023/04/21 09:02:01;;;;;;;;;;;;;;;11.42;82.04;95932.22;5038145;28;20401;-71
2023/04/21 09:04:28;;;;;;;;;;;;;;;11.46;80.46;95925.47;5054749;28;19951;-78
2023/04/21 09:06:54;;;;;;;;;;;;;;;11.56;79.09;95912.50;5054494;28;20315;-73
2023/04/21 09:09:20;;;;;;;;;;;;;;;11.75;80.63;95920.97;5054265;28;20447;-73
2023/04/21 09:11:53;;;;;;;;;;;;;;;12.04;82.40;95939.34;5037898;28;19952;-73
2023/04/21 09:14:19;;;;;;;;;;;;;;;12.30;78.62;95897.66;5054304;28;19944;-73
2023/04/21 09:16:57;;;;;;;;;;;;;;;12.45;78.82;95894.44;5053473;28;19983;-74
2023/04/21 09:19:25;;;;;;;;;;;;;;;12.56;78.61;95880.38;5054502;28;19949;-72
2023/04/21 09:21:51;;;;;;;;;;;;;;;12.77;79.86;95898.00;5035916;28;19953;-72
2023/04/21 09:24:17;;;;;;;;;;;;;;;12.87;77.17;95868.41;5054981;28;19947;-73
2023/04/21 09:26:43;;;;;;;;;;;;;;;12.65;78.80;95901.78;5054163;28;19940;-74
2023/04/21 09:29:08;;;;;;;;;;;;;;;12.40;76.54;95882.00;5036578;28;19968;-72
2023/04/21 09:31:34;;;;;;;;;;;;;;;12.22;78.81;95900.69;5054534;28;19940;-73
2023/04/21 09:34:00;;;;;;;;;;;;;;;12.19;78.61;95899.34;5054703;28;19948;-73
2023/04/21 09:36:28;;;;;;;;;;;;;;;12.33;79.67;95905.06;5053170;28;19964;-72
2023/04/21 09:38:53;;;;;;;;;;;;;;;12.58;79.69;95896.72;5036534;28;19949;-74
2023/04/21 09:41:20;;;;;;;;;;;;;;;12.89;79.60;95884.72;5053175;28;19944;-79
2023/04/21 09:43:50;;;;;;;;;;;;;;;13.07;77.15;95856.47;5053210;28;20417;-72
2023/04/21 09:46:16;;;;;;;;;;;;;;;13.31;78.07;95860.44;5036510;28;19951;-71
2023/04/21 09:48:43;;;;;;;;;;;;;;;13.53;75.18;95839.28;5053008;28;20418;-71
2023/04/21 09:51:14;;;;;;;;;;;;;;;13.78;79.21;95875.59;5054233;28;19946;-71
2023/04/21 09:53:40;;;;;;;;;;;;;;;14.05;74.60;95832.56;5053062;28;19943;-71
2023/04/21 09:56:10;;;;;;;;;;;;;;;14.17;76.20;95848.16;5053652;28;19943;-72
2023/04/21 09:58:43;;;;;;;;;;;;;;;14.30;75.92;95855.63;5053698;28;19945;-76
2023/04/21 10:01:09;;;;;;;;;;;;;;;14.36;74.49;95840.63;5053873;28;19939;-74
2023/04/21 10:03:37;;;;;;;;;;;;;;;14.41;73.45;95833.53;5052805;28;19942;-75
2023/04/21 10:06:04;;;;;;;;;;;;;;;14.32;72.03;95813.16;5053766;28;19947;-75
2023/04/21 10:08:30;;;;;;;;;;;;;;;14.27;75.07;95835.03;5053911;28;19956;-75
2023/04/21 10:10:57;;;;;;;;;;;;;;;14.33;73.21;95836.66;5053875;28;19950;-75
2023/04/21 10:13:23;;;;;;;;;;;;;;;14.35;74.60;95839.03;5053398;28;19942;-76
2023/04/21 10:15:59;;;;;;;;;;;;;;;14.54;75.82;95842.03;5053636;28;20406;-77
2023/04/21 10:18:27;;;;;;;;;;;;;;;14.76;74.27;95823.38;5036897;28;20315;-71
2023/04/21 10:20:53;;;;;;;;;;;;;;;14.98;75.23;95839.81;5053771;28;19939;-72
2023/04/21 10:23:36;;;;;;;;;;;;;;;15.16;66.35;95761.16;5053134;28;20390;-72
2023/04/21 10:26:02;;;;;;;;;;;;;;;15.31;72.67;95823.78;5052496;28;19941;-72
2023/04/21 10:29:00;;;;;;;;;;;;;;;15.42;66.37;95775.94;5052399;28;19959;-72
2023/04/21 10:31:30;;;;;;;;;;;;;;;15.31;70.31;95889.81;5030982;28;19943;-72
2023/04/21 10:34:11;;;;;;;;;;;;;;;15.57;71.03;95899.34;5053253;28;19945;-76
2023/04/21 10:36:42;;;;;;;;;;;;;;;15.86;69.33;95892.81;5053072;28;19971;-75
2023/04/21 10:39:11;;;;;;;;;;;;;;;15.99;66.61;95885.13;5036414;28;20324;-74
2023/04/21 10:41:36;;;;;;;;;;;;;;;16.03;67.17;95891.47;5036416;28;19943;-75
2023/04/21 10:44:08;;;;;;;;;;;;;;;16.12;68.15;95898.88;5053415;28;20391;-74
2023/04/21 10:46:35;;;;;;;;;;;;;;;16.16;64.44;95884.84;5053721;28;19936;-74
2023/04/21 10:49:08;;;;;;;;;;;;;;;16.24;65.35;95886.94;5053885;28;19974;-74
2023/04/21 10:51:53;;;;;;;;;;;;;;;16.49;65.26;95879.22;5054186;28;19939;-75
2023/04/21 10:54:20;;;;;;;;;;;;;;;16.69;64.07;95875.72;5054318;28;19940;-73
2023/04/21 10:56:47;;;;;;;;;;;;;;;16.56;61.80;95869.13;5052998;28;20399;-82
2023/04/21 10:59:14;;;;;;;;;;;;;;;16.73;63.75;95884.69;5052962;28;20289;-82
2023/04/21 11:01:41;;;;;;;;;;;;;;;16.71;63.46;95869.06;5054194;28;19939;-82
2023/04/21 11:04:12;;;;;;;;;;;;;;;16.72;62.98;95873.31;5054065;28;20386;-82
2023/04/21 11:06:38;;;;;;;;;;;;;;;16.73;63.28;95872.25;5052972;28;19945;-81
2023/04/21 11:09:04;;;;;;;;;;;;;;;16.80;60.62;95848.97;5052813;28;19986;-81
2023/04/21 11:11:30;;;;;;;;;;;;;;;16.82;63.51;95861.94;5054046;28;20379;-73
2023/04/21 11:13:58;;;;;;;;;;;;;;;16.87;61.87;95855.81;5054070;28;20007;-82
2023/04/21 11:16:24;;;;;;;;;;;;;;;17.13;64.86;95864.41;5051845;28;19972;-81
2023/04/21 11:18:50;;;;;;;;;;;;;;;17.40;64.12;95864.78;5035378;28;20018;-82
2023/04/21 11:21:17;;;;;;;;;;;;;;;17.58;60.11;95828.88;5053766;28;19937;-81
2023/04/21 11:23:50;;;;;;;;;;;;;;;17.59;62.76;95853.50;5052684;28;19959;-81
2023/04/21 11:26:16;;;;;;;;;;;;;;;17.63;61.34;95846.59;5052211;28;19946;-81
2023/04/21 11:28:46;;;;;;;;;;;;;;;17.75;59.13;95831.13;5052461;28;19965;-73
2023/04/21 11:31:12;;;;;;;;;;;;;;;17.72;61.38;95841.47;5051875;28;19954;-72
2023/04/21 11:33:38;;;;;;;;;;;;;;;17.76;60.92;95834.56;5052614;28;19943;-73
2023/04/21 11:36:05;;;;;;;;;;;;;;;17.85;56.80;95830.28;5052330;28;19964;-74
2023/04/21 11:38:40;;;;;;;;;;;;;;;17.77;57.83;95838.81;5051815;28;19940;-74
2023/04/21 11:41:06;;;;;;;;;;;;;;;17.74;58.47;95844.66;5052437;28;19964;-73
2023/04/21 11:43:32;;;;;;;;;;;;;;;17.80;57.98;95839.03;5051714;28;20320;-74
2023/04/21 11:46:17;;;;;;;;;;;;;;;17.91;57.59;95836.31;5053438;28;19988;-74
2023/04/21 11:48:44;;;;;;;;;;;;;;;18.02;57.95;95832.50;5056579;28;19961;-78
2023/04/21 11:51:14;;;;;;;;;;;;;;;18.02;58.38;95843.13;5055372;28;19941;-72
2023/04/21 11:53:39;;;;;;;;;;;;;;;18.14;57.08;95829.47;5056745;28;19939;-72
2023/04/21 11:56:05;;;;;;;;;;;;;;;18.43;60.18;95837.38;5056408;28;19948;-73
2023/04/21 11:58:31;;;;;;;;;;;;;;;18.59;58.14;95836.13;5039314;28;19949;-73
2023/04/21 12:00:57;;;;;;;;;;;;;;;18.51;58.79;95835.97;5056291;28;19945;-73
2023/04/21 12:03:25;;;;;;;;;;;;;;;18.51;54.27;95830.66;5055422;28;19943;-73
2023/04/21 12:05:55;;;;;;;;;;;;;;;18.48;53.93;95824.06;5055107;28;20404;-76
2023/04/21 12:08:20;;;;;;;;;;;;;;;18.32;54.44;95823.44;5054990;28;20406;-74
2023/04/21 12:10:47;;;;;;;;;;;;;;;18.18;55.57;95825.97;5038573;28;19985;-75
2023/04/21 12:13:20;;;;;;;;;;;;;;;18.31;56.22;95832.47;5054754;28;19955;-73
2023/04/21 12:15:47;;;;;;;;;;;;;;;18.50;58.76;95835.19;5038383;28;19969;-75
2023/04/21 12:18:13;;;;;;;;;;;;;;;18.76;53.16;95818.94;5055642;28;19944;-73
2023/04/21 12:20:47;;;;;;;;;;;;;;;19.05;56.11;95824.97;5055630;28;20384;-74
2023/04/21 12:23:13;;;;;;;;;;;;;;;19.29;56.11;95823.31;5056557;28;19940;-73
2023/04/21 12:25:41;;;;;;;;;;;;;;;19.15;51.59;95817.91;5038829;28;20437;-74
2023/04/21 12:28:07;;;;;;;;;;;;;;;19.13;55.69;95826.19;5054585;28;19946;-75
2023/04/21 12:30:33;;;;;;;;;;;;;;;19.21;54.33;95828.19;5038554;28;19952;-74
2023/04/21 12:32:59;;;;;;;;;;;;;;;19.26;52.62;95814.03;5055619;28;20335;-74
2023/04/21 12:35:25;;;;;;;;;;;;;;;19.25;54.68;95823.06;5056173;28;20039;-74
2023/04/21 12:37:51;;;;;;;;;;;;;;;19.38;54.74;95821.56;5054360;28;20059;-74
2023/04/21 12:40:17;;;;;;;;;;;;;;;19.38;53.55;95818.91;5055544;28;19986;-75
2023/04/21 12:42:42;;;;;;;;;;;;;;;19.35;51.31;95817.63;5055503;28;19943;-73
2023/04/21 12:45:08;;;;;;;;;;;;;;;19.33;48.77;95813.66;5054864;28;19958;-72